createdAt,value
2022-11-23T00:02:26.189Z,100.00
2022-11-23T00:06:28.399Z,100.00
2022-11-23T00:10:30.374Z,100.00
2022-11-23T00:14:32.599Z,100.00
2022-11-23T00:18:34.894Z,100.00
2022-11-23T00:22:36.889Z,100.00
2022-11-23T00:26:39.176Z,100.00
2022-11-23T00:30:41.209Z,100.00
2022-11-23T00:34:43.693Z,100.00
2022-11-23T00:38:46.058Z,100.00
2022-11-23T00:42:48.059Z,100.00
2022-11-23T00:46:50.107Z,100.00
2022-11-23T00:50:52.119Z,100.00
2022-11-23T00:54:54.136Z,100.00
2022-11-23T00:58:58.564Z,100.00
2022-11-23T01:03:01.153Z,100.00
2022-11-23T01:07:04.253Z,100.00
2022-11-23T01:11:10.430Z,100.00
2022-11-23T01:15:12.447Z,100.00
2022-11-23T01:19:17.797Z,100.00
2022-11-23T01:23:23.002Z,100.00
2022-11-23T01:27:25.038Z,100.00
2022-11-23T01:31:27.336Z,100.00
2022-11-23T01:35:29.447Z,100.00
2022-11-23T01:39:31.732Z,100.00
2022-11-23T01:43:34.072Z,100.00
2022-11-23T01:47:37.268Z,100.00
2022-11-23T01:51:44.500Z,100.00
2022-11-23T01:55:47.972Z,100.00
2022-11-23T01:59:51.426Z,100.00
2022-11-23T02:03:56.453Z,100.00
2022-11-23T02:08:00.578Z,100.00
2022-11-23T02:12:02.590Z,100.00
2022-11-23T02:16:04.787Z,100.00
2022-11-23T02:20:17.550Z,100.00
2022-11-23T02:24:33.547Z,100.00
2022-11-23T02:28:41.152Z,100.00
2022-11-23T02:32:44.039Z,100.00
2022-11-23T02:36:55.033Z,100.00
2022-11-23T02:40:57.613Z,100.00
2022-11-23T02:45:15.765Z,100.00
2022-11-23T02:49:17.766Z,100.00
2022-11-23T02:53:19.779Z,100.00
2022-11-23T02:57:21.807Z,100.00
2022-11-23T03:01:23.962Z,100.00
2022-11-23T03:05:26.526Z,100.00
2022-11-23T03:09:28.610Z,100.00
2022-11-23T03:13:31.775Z,100.00
2022-11-23T03:17:35.582Z,100.00
2022-11-23T03:21:37.927Z,100.00
2022-11-23T03:25:42.690Z,100.00
2022-11-23T03:29:45.705Z,100.00
2022-11-23T03:33:53.035Z,100.00
2022-11-23T03:37:55.043Z,100.00
2022-11-23T03:41:57.066Z,100.00
2022-11-23T03:46:05.289Z,100.00
2022-11-23T03:50:07.850Z,100.00
2022-11-23T03:54:10.039Z,100.00
2022-11-23T03:58:13.596Z,100.00
2022-11-23T04:02:16.693Z,100.00
2022-11-23T04:06:26.830Z,100.00
2022-11-23T04:10:35.934Z,100.00
2022-11-23T04:14:47.794Z,100.00
2022-11-23T04:18:49.846Z,100.00
2022-11-23T04:22:52.143Z,100.00
2022-11-23T04:26:54.299Z,100.00
2022-11-23T04:30:58.694Z,100.00
2022-11-23T04:35:03.775Z,100.00
2022-11-23T04:39:07.299Z,100.00
2022-11-23T04:43:17.048Z,100.00
2022-11-23T04:47:19.106Z,100.00
2022-11-23T04:51:23.005Z,100.00
2022-11-23T04:55:26.130Z,100.00
2022-11-23T04:59:32.530Z,100.00
2022-11-23T05:03:35.076Z,100.00
2022-11-23T05:07:39.568Z,100.00
2022-11-23T05:11:41.863Z,100.00
2022-11-23T05:15:45.333Z,100.00
2022-11-23T05:19:51.840Z,100.00
2022-11-23T05:23:54.924Z,100.00
2022-11-23T05:27:57.107Z,100.00
2022-11-23T05:31:59.268Z,100.00
2022-11-23T05:36:01.532Z,100.00
2022-11-23T05:40:12.287Z,100.00
2022-11-23T05:44:14.537Z,100.00
2022-11-23T05:48:16.846Z,100.00
2022-11-23T05:52:31.822Z,100.00
2022-11-23T05:56:37.367Z,100.00
2022-11-23T06:00:48.305Z,100.00
2022-11-23T06:04:52.221Z,100.00
2022-11-23T06:09:00.516Z,100.00
2022-11-23T06:13:04.677Z,100.00
2022-11-23T06:17:07.834Z,100.00
2022-11-23T06:21:18.227Z,100.00
2022-11-23T06:25:21.271Z,100.00
2022-11-23T06:29:34.392Z,100.00
2022-11-23T06:33:36.851Z,100.00
2022-11-23T06:37:38.892Z,100.00
2022-11-23T06:41:41.214Z,100.00
2022-11-23T06:45:44.683Z,100.00
2022-11-23T06:49:49.804Z,100.00
2022-11-23T06:54:00.577Z,100.00
2022-11-23T06:58:02.819Z,100.00
2022-11-23T07:02:05.093Z,100.00
2022-11-23T07:06:11.149Z,100.00
2022-11-23T07:10:13.895Z,100.00
2022-11-23T07:14:21.115Z,100.00
2022-11-23T07:18:26.552Z,100.00
2022-11-23T07:22:33.726Z,100.00
2022-11-23T07:26:35.753Z,100.00
2022-11-23T07:30:39.719Z,100.00
2022-11-23T07:34:41.793Z,100.00
2022-11-23T07:38:44.305Z,100.00
2022-11-23T07:42:48.556Z,100.00
2022-11-23T07:46:53.757Z,100.00
2022-11-23T07:50:55.772Z,100.00
2022-11-23T07:54:57.859Z,100.00
2022-11-23T07:58:59.854Z,100.00
2022-11-23T08:03:26.799Z,100.00
2022-11-23T08:07:24.084Z,100.00
2022-11-23T08:11:26.104Z,100.00
2022-11-23T08:15:28.140Z,100.00
2022-11-23T08:19:30.163Z,100.00
2022-11-23T08:23:32.311Z,100.00
2022-11-23T08:27:34.316Z,100.00
2022-11-23T08:31:36.375Z,100.00
2022-11-23T08:35:40.844Z,100.00
2022-11-23T08:39:42.902Z,100.00
2022-11-23T08:43:44.903Z,100.00
2022-11-23T08:47:47.208Z,100.00
2022-11-23T08:51:50.409Z,100.00
2022-11-23T08:55:52.537Z,100.00
2022-11-23T08:59:54.736Z,100.00
2022-11-23T09:03:56.731Z,100.00
2022-11-23T09:08:02.327Z,100.00
2022-11-23T09:12:04.880Z,100.00
2022-11-23T09:16:07.509Z,100.00
2022-11-23T09:20:10.610Z,100.00
2022-11-23T09:24:13.126Z,100.00
2022-11-23T09:28:19.634Z,100.00
2022-11-23T09:32:21.664Z,100.00
2022-11-23T09:36:24.050Z,100.00
2022-11-23T09:40:32.596Z,100.00
2022-11-23T09:44:57.967Z,100.00
2022-11-23T09:49:10.582Z,100.00
2022-11-23T09:53:18.386Z,100.00
2022-11-23T09:57:26.630Z,100.00
2022-11-23T10:01:30.399Z,100.00
2022-11-23T10:05:38.334Z,100.00
2022-11-23T10:09:52.265Z,100.00
2022-11-23T10:14:13.294Z,100.00
2022-11-23T10:18:15.271Z,100.00
2022-11-23T10:22:26.527Z,100.00
2022-11-23T10:26:32.648Z,100.00
2022-11-23T10:30:34.977Z,100.00
2022-11-23T10:34:56.911Z,99.73
2022-11-23T10:39:00.609Z,96.82
2022-11-23T10:43:11.897Z,95.11
2022-11-23T10:47:34.254Z,93.99
2022-11-23T10:51:37.750Z,92.56
2022-11-23T10:56:11.739Z,92.53
2022-11-23T11:00:17.885Z,92.63
2022-11-23T11:04:25.650Z,92.30
2022-11-23T11:08:33.525Z,90.36
2022-11-23T11:12:35.699Z,89.00
2022-11-23T11:16:38.614Z,88.39
2022-11-23T11:20:45.050Z,88.83
2022-11-23T11:24:47.317Z,88.00
2022-11-23T11:28:54.524Z,87.14
2022-11-23T11:33:04.542Z,86.51
2022-11-23T11:37:18.940Z,86.48
2022-11-23T11:41:25.355Z,85.71
2022-11-23T11:45:37.337Z,85.46
2022-11-23T11:49:47.268Z,84.30
2022-11-23T11:54:14.245Z,83.52
2022-11-23T11:58:17.909Z,82.64
2022-11-23T12:02:49.027Z,82.26
2022-11-23T12:07:04.953Z,81.50
2022-11-23T12:11:11.704Z,81.74
2022-11-23T12:20:09.769Z,80.58
2022-11-23T12:24:32.677Z,80.77
2022-11-23T12:28:58.699Z,80.02
2022-11-23T12:33:12.265Z,78.57
2022-11-23T12:37:23.410Z,79.09
2022-11-23T12:41:49.531Z,78.53
2022-11-23T12:46:10.368Z,75.59
2022-11-23T12:50:27.350Z,76.34
2022-11-23T12:55:00.590Z,76.75
2022-11-23T12:59:03.879Z,76.53
2022-11-23T13:03:22.157Z,75.48
2022-11-23T13:08:02.029Z,75.70
2022-11-23T13:12:36.365Z,76.04
2022-11-23T13:17:18.794Z,76.21
2022-11-23T13:21:40.903Z,76.39
2022-11-23T13:25:43.145Z,75.20
2022-11-23T13:29:51.420Z,73.94
2022-11-23T13:34:01.956Z,72.45
2022-11-23T13:38:25.445Z,71.92
2022-11-23T13:42:31.106Z,71.84
2022-11-23T13:46:35.742Z,69.54
2022-11-23T13:50:40.890Z,68.62
2022-11-23T13:54:54.803Z,68.33
2022-11-23T13:58:59.816Z,66.99
2022-11-23T14:03:39.621Z,66.63
2022-11-23T14:07:46.252Z,66.71
2022-11-23T14:11:59.040Z,66.67
2022-11-23T14:16:04.062Z,66.77
2022-11-23T14:20:24.771Z,65.97
2022-11-23T14:24:42.860Z,65.56
2022-11-23T14:29:06.210Z,66.01
2022-11-23T14:33:26.246Z,66.24
2022-11-23T14:37:43.204Z,67.10
2022-11-23T14:41:49.965Z,67.76
2022-11-23T14:45:52.797Z,67.92
2022-11-23T14:49:54.972Z,68.68
2022-11-23T14:54:00.126Z,69.23
2022-11-23T14:58:05.379Z,69.83
2022-11-23T15:02:20.188Z,70.46
2022-11-23T15:06:27.131Z,70.87
2022-11-23T15:11:02.950Z,71.40
2022-11-23T15:15:26.134Z,71.97
2022-11-23T15:19:29.753Z,72.52
2022-11-23T15:23:38.519Z,72.68
2022-11-23T15:27:41.928Z,73.28
2022-11-23T15:32:07.020Z,74.31
2022-11-23T15:36:06.654Z,74.70
2022-11-23T15:40:13.456Z,75.15
2022-11-23T15:44:27.646Z,76.22
2022-11-23T15:48:35.371Z,77.00
2022-11-23T15:52:38.115Z,77.45
2022-11-23T15:56:44.548Z,78.43
2022-11-23T16:00:53.394Z,78.78
2022-11-23T16:05:11.167Z,78.92
2022-11-23T16:09:55.484Z,78.98
2022-11-23T16:14:34.479Z,79.50
2022-11-23T16:18:36.616Z,80.36
2022-11-23T16:22:40.709Z,80.67
2022-11-23T16:26:43.813Z,80.66
2022-11-23T16:30:49.015Z,80.75
2022-11-23T16:34:52.187Z,80.67
2022-11-23T16:38:56.338Z,80.18
2022-11-23T16:43:00.729Z,79.24
2022-11-23T16:47:22.924Z,78.56
2022-11-23T16:51:25.240Z,78.26
2022-11-23T16:55:27.303Z,78.07
2022-11-23T16:59:29.309Z,78.03
2022-11-23T17:03:33.241Z,78.61
2022-11-23T17:07:35.318Z,78.31
2022-11-23T17:11:44.710Z,78.47
2022-11-23T17:15:46.887Z,79.40
2022-11-23T17:19:50.204Z,79.49
2022-11-23T17:23:52.240Z,79.11
2022-11-23T17:27:54.287Z,77.88
2022-11-23T17:31:56.343Z,77.69
2022-11-23T17:35:59.826Z,77.44
2022-11-23T17:40:01.793Z,77.16
2022-11-23T17:44:04.051Z,77.62
2022-11-23T17:48:06.265Z,77.37
2022-11-23T17:52:11.312Z,77.96
2022-11-23T17:56:19.467Z,78.45
2022-11-23T18:00:23.329Z,79.92
2022-11-23T18:04:25.298Z,81.76
2022-11-23T18:08:27.383Z,83.01
2022-11-23T18:12:29.657Z,84.48
2022-11-23T18:16:31.853Z,85.91
2022-11-23T18:20:34.236Z,87.66
2022-11-23T18:24:36.276Z,89.04
2022-11-23T18:28:38.282Z,90.11
2022-11-23T18:32:40.350Z,91.21
2022-11-23T18:36:42.444Z,92.54
2022-11-23T18:40:44.446Z,92.49
2022-11-23T18:44:46.497Z,93.39
2022-11-23T18:48:50.242Z,93.51
2022-11-23T18:52:52.193Z,93.95
2022-11-23T18:56:54.198Z,94.48
2022-11-23T19:00:56.676Z,94.35
2022-11-23T19:04:58.698Z,94.37
2022-11-23T19:09:02.905Z,95.25
2022-11-23T19:13:06.095Z,95.43
2022-11-23T19:17:08.620Z,95.65
2022-11-23T19:21:21.931Z,95.76
2022-11-23T19:25:24.826Z,96.12
2022-11-23T19:29:28.505Z,96.31
2022-11-23T19:33:30.474Z,96.89
2022-11-23T19:37:35.452Z,97.36
2022-11-23T19:41:37.534Z,96.75
2022-11-23T19:45:39.739Z,97.07
2022-11-23T19:49:41.721Z,96.69
2022-11-23T19:53:45.178Z,96.29
2022-11-23T19:57:47.181Z,96.49
2022-11-23T20:01:49.396Z,96.84
2022-11-23T20:06:00.046Z,96.72
2022-11-23T20:10:02.086Z,97.29
2022-11-23T20:14:04.742Z,97.34
2022-11-23T20:18:06.730Z,97.45
2022-11-23T20:22:08.744Z,97.02
2022-11-23T20:26:14.584Z,97.52
2022-11-23T20:30:16.615Z,98.11
2022-11-23T20:34:22.974Z,98.76
2022-11-23T20:38:27.244Z,99.19
2022-11-23T20:42:29.264Z,99.00
2022-11-23T20:50:54.961Z,100.00
2022-11-23T20:54:56.996Z,99.81
2022-11-23T20:59:04.040Z,99.56
2022-11-23T21:03:06.026Z,99.43
2022-11-23T21:07:08.233Z,99.83
2022-11-23T21:11:33.669Z,100.00
2022-11-23T21:15:35.683Z,100.00
2022-11-23T21:19:39.539Z,100.00
2022-11-23T21:23:41.587Z,100.00
2022-11-23T21:27:43.653Z,100.00
2022-11-23T21:31:47.394Z,100.00
2022-11-23T21:35:49.725Z,100.00
2022-11-23T21:39:53.226Z,100.00
2022-11-23T21:43:55.401Z,100.00
2022-11-23T21:47:57.472Z,100.00
2022-11-23T21:51:59.740Z,100.00
2022-11-23T21:56:04.380Z,100.00
2022-11-23T22:00:07.256Z,100.00
2022-11-23T22:04:15.408Z,100.00
2022-11-23T22:08:33.097Z,100.00
2022-11-23T22:12:35.178Z,100.00
2022-11-23T22:16:39.915Z,100.00
2022-11-23T22:20:42.076Z,100.00
2022-11-23T22:24:44.135Z,100.00
2022-11-23T22:28:51.280Z,100.00
2022-11-23T22:32:53.303Z,100.00
2022-11-23T22:36:55.280Z,100.00
2022-11-23T22:40:57.325Z,100.00
2022-11-23T22:44:59.338Z,100.00
2022-11-23T22:49:01.871Z,100.00
2022-11-23T22:53:03.976Z,100.00
2022-11-23T22:57:05.996Z,100.00
2022-11-23T23:01:14.684Z,100.00
2022-11-23T23:05:16.793Z,100.00
2022-11-23T23:09:18.945Z,100.00
2022-11-23T23:13:21.890Z,100.00
2022-11-23T23:17:23.993Z,100.00
2022-11-23T23:21:28.171Z,100.00
2022-11-23T23:25:30.596Z,100.00
2022-11-23T23:29:32.602Z,100.00
2022-11-23T23:33:34.956Z,100.00
2022-11-23T23:37:37.161Z,100.00
2022-11-23T23:41:39.198Z,100.00
2022-11-23T23:45:41.296Z,100.00
2022-11-23T23:49:43.293Z,100.00
2022-11-23T23:53:46.211Z,100.00
2022-11-23T23:57:48.309Z,100.00
